Time;durP1;ratioP1;P1;durP2;ratioP2;P2;SDS_P1;SDS_P2;PMS_P1;PMS_P2;Temp;Humidity;BMP_temperature;BMP_pressure;BME280_temperature;BME280_humidity;BME280_pressure;Samples;Min_cycle;Max_cycle;Signal;HPM_P1;HPM_P2
2023/08/03 00:01:32;;;;;;;10.87;9.27;;;;;;;24.76;59.88;96428.69;5087997;28;20249;-80
2023/08/03 00:04:53;;;;;;;10.23;9.07;;;;;;;25.48;59.39;96526.44;5069960;28;20345;-81
2023/08/03 00:08:15;;;;;;;13.13;8.93;;;;;;;25.20;60.09;96521.75;5087479;28;20286;-74
2023/08/03 00:11:36;;;;;;;11.90;9.70;;;;;;;25.15;60.25;96522.25;5087926;28;20192;-74
2023/08/03 00:14:56;;;;;;;10.80;9.13;;;;;;;24.82;61.25;96515.41;5087559;28;20578;-73
2023/08/03 00:18:17;;;;;;;12.07;9.27;;;;;;;24.63;62.55;96519.25;5087598;28;20610;-73
2023/08/03 00:21:38;;;;;;;9.07;8.17;;;;;;;24.71;61.68;96526.38;5052585;28;20202;-73
2023/08/03 00:24:58;;;;;;;10.93;9.40;;;;;;;24.52;62.61;96516.13;5087588;28;20354;-74
2023/08/03 00:28:21;;;;;;;13.67;8.93;;;;;;;24.38;63.52;96519.47;5087326;28;20200;-75
2023/08/03 00:31:41;;;;;;;11.20;9.40;;;;;;;24.30;63.80;96516.84;5069458;28;20236;-79
2023/08/03 00:35:04;;;;;;;10.30;8.80;;;;;;;24.36;63.49;96519.63;5087314;28;20218;-74
2023/08/03 00:38:25;;;;;;;11.47;8.87;;;;;;;24.24;63.66;96515.66;5087218;28;20193;-81
2023/08/03 00:41:45;;;;;;;9.80;8.77;;;;;;;24.28;63.99;96521.47;5087124;28;20197;-81
2023/08/03 00:45:06;;;;;;;10.50;9.10;;;;;;;23.90;65.45;96518.47;5087204;28;20193;-80
2023/08/03 00:48:27;;;;;;;10.93;9.03;;;;;;;23.54;66.87;96519.75;5087120;28;20283;-82
2023/08/03 00:51:48;;;;;;;11.27;9.47;;;;;;;23.32;67.92;96517.72;5086393;28;20350;-81
2023/08/03 00:55:08;;;;;;;12.73;9.50;;;;;;;23.50;67.41;96521.06;5068471;28;20219;-80
2023/08/03 00:58:29;;;;;;;10.13;9.13;;;;;;;23.21;68.75;96516.16;5068582;28;20196;-81
2023/08/03 01:01:50;;;;;;;12.23;9.30;;;;;;;23.31;69.07;96518.66;5086118;28;20197;-81
2023/08/03 01:05:11;;;;;;;12.67;10.53;;;;;;;23.20;68.96;96511.03;5068434;28;20200;-79
2023/08/03 01:08:32;;;;;;;13.03;9.30;;;;;;;23.09;69.46;96517.44;5086661;28;20263;-82
2023/08/03 01:11:52;;;;;;;11.37;9.40;;;;;;;23.34;69.06;96508.66;5068464;28;20713;-82
2023/08/03 01:15:13;;;;;;;13.10;9.10;;;;;;;23.47;68.49;96524.03;5068375;28;20709;-80
2023/08/03 01:18:34;;;;;;;13.73;9.90;;;;;;;23.46;68.46;96514.44;5086634;28;20195;-80
2023/08/03 01:21:55;;;;;;;12.37;10.13;;;;;;;23.40;68.55;96515.09;5086320;28;20249;-79
2023/08/03 01:25:15;;;;;;;12.83;9.40;;;;;;;23.10;69.16;96513.00;5068415;28;20670;-80
2023/08/03 01:28:36;;;;;;;10.90;9.70;;;;;;;23.03;69.07;96514.59;5068118;28;20564;-79
2023/08/03 01:31:58;;;;;;;10.73;9.23;;;;;;;23.22;68.23;96520.47;5070461;28;20282;-79
2023/08/03 01:35:18;;;;;;;10.80;9.47;;;;;;;23.44;67.70;96527.81;5086267;28;20191;-81
2023/08/03 01:38:39;;;;;;;11.50;9.63;;;;;;;23.35;67.14;96525.31;5068152;28;20199;-83
2023/08/03 01:42:00;;;;;;;12.63;10.57;;;;;;;23.43;67.20;96525.34;5068186;28;20297;-77
2023/08/03 01:45:21;;;;;;;12.20;10.90;;;;;;;23.20;66.09;96480.19;5068726;28;20690;-79
2023/08/03 01:48:41;;;;;;;12.33;9.90;;;;;;;23.21;66.87;96507.41;5086265;28;20697;-81
2023/08/03 01:51:42;;;;;;;13.43;10.60;;;;;;;;;;5070368;28;20186;-82
2023/08/03 01:55:03;;;;;;;13.00;9.90;;;;;;;22.90;67.88;96532.69;5070259;28;20217;-74
2023/08/03 01:58:25;;;;;;;16.27;10.57;;;;;;;22.99;67.86;96537.03;5068447;28;20287;-81
2023/08/03 02:01:46;;;;;;;14.37;10.53;;;;;;;22.93;67.28;96513.91;5068080;28;20681;-76
2023/08/03 02:05:06;;;;;;;11.63;9.97;;;;;;;22.99;67.51;96537.03;5053194;28;20283;-76
2023/08/03 02:08:27;;;;;;;12.87;10.03;;;;;;;23.15;67.36;96542.38;5085733;28;20286;-74
2023/08/03 02:11:48;;;;;;;14.33;10.97;;;;;;;23.45;66.24;96545.31;5086890;28;20284;-75
2023/08/03 02:15:09;;;;;;;14.13;10.27;;;;;;;23.30;66.70;96541.63;5072343;28;20217;-75
2023/08/03 02:18:30;;;;;;;13.97;11.10;;;;;;;22.71;68.96;96538.25;5057441;28;20191;-76
2023/08/03 02:21:51;;;;;;;12.03;10.17;;;;;;;22.69;68.77;96542.84;5057271;28;20183;-74
2023/08/03 02:25:11;;;;;;;12.97;10.53;;;;;;;22.47;70.17;96541.50;5070794;28;20672;-74
2023/08/03 02:28:33;;;;;;;10.80;9.67;;;;;;;22.53;69.44;96541.72;5071960;28;20290;-74
2023/08/03 02:31:54;;;;;;;10.40;9.30;;;;;;;22.44;69.88;96539.19;5071518;28;20199;-74
2023/08/03 02:35:17;;;;;;;12.83;10.63;;;;;;;22.32;70.54;96548.31;5071624;28;20215;-79
2023/08/03 02:38:40;;;;;;;15.33;10.60;;;;;;;22.39;70.30;96549.38;5089925;28;20195;-80
2023/08/03 02:42:02;;;;;;;11.93;10.00;;;;;;;22.18;70.93;96549.72;5071528;28;20198;-74
2023/08/03 02:45:24;;;;;;;13.13;10.37;;;;;;;22.08;71.51;96548.16;5054733;28;20572;-72
2023/08/03 02:48:46;;;;;;;12.83;10.23;;;;;;;21.84;70.98;96507.41;5071403;28;20191;-74
2023/08/03 02:52:08;;;;;;;11.97;9.87;;;;;;;22.18;70.60;96519.88;5071461;28;20624;-73
2023/08/03 02:55:29;;;;;;;13.50;9.87;;;;;;;22.43;69.90;96543.66;5089099;28;20734;-72
2023/08/03 02:58:50;;;;;;;14.30;11.10;;;;;;;22.68;68.65;96539.38;5054184;28;20582;-74
2023/08/03 03:02:21;;;;;;;17.00;11.60;;;;;;;22.70;68.87;96555.88;5071870;28;20181;-72
2023/08/03 03:05:43;;;;;;;11.90;10.13;;;;;;;22.71;68.12;96546.16;5070962;28;20198;-72
2023/08/03 03:09:07;;;;;;;12.30;10.57;;;;;;;22.89;68.19;96560.94;5071074;28;20277;-73
2023/08/03 03:12:30;;;;;;;12.70;10.27;;;;;;;23.02;67.27;96556.03;5071216;28;20927;-72
2023/08/03 03:15:52;;;;;;;14.93;11.17;;;;;;;23.20;66.33;96558.59;5069800;28;20613;-75
2023/08/03 03:19:12;;;;;;;19.67;12.00;;;;;;;23.17;66.87;96554.47;5088727;28;20207;-73
2023/08/03 03:22:35;;;;;;;28.90;13.97;;;;;;;23.30;66.61;96560.13;5088733;28;20264;-73
2023/08/03 03:25:56;;;;;;;16.40;11.30;;;;;;;23.08;66.64;96562.53;5088965;28;20280;-73
2023/08/03 03:29:17;;;;;;;13.57;11.43;;;;;;;22.73;67.99;96567.94;5071362;28;20196;-74
2023/08/03 03:32:39;;;;;;;11.63;10.07;;;;;;;22.60;68.54;96563.91;5058505;28;20253;-73
2023/08/03 03:36:00;;;;;;;11.53;10.33;;;;;;;22.55;68.60;96568.78;5082363;28;20235;-73
2023/08/03 03:39:22;;;;;;;12.27;10.90;;;;;;;22.65;68.42;96566.91;5034219;28;20195;-74
2023/08/03 03:42:46;;;;;;;12.43;10.23;;;;;;;22.59;68.78;96559.59;5050665;28;20227;-75
2023/08/03 03:46:09;;;;;;;12.37;10.53;;;;;;;22.79;68.48;96573.44;5069718;28;20273;-74
2023/08/03 03:49:30;;;;;;;12.63;10.07;;;;;;;23.03;67.21;96565.63;5049693;28;20209;-78
2023/08/03 03:52:51;;;;;;;11.33;9.63;;;;;;;22.94;66.52;96526.13;5086839;28;20598;-75
2023/08/03 03:56:15;;;;;;;11.03;9.93;;;;;;;23.38;65.39;96552.25;5072457;28;20206;-76
2023/08/03 03:59:35;;;;;;;11.50;9.27;;;;;;;23.62;65.49;96574.47;5069815;28;20193;-77
2023/08/03 04:02:56;;;;;;;12.17;10.00;;;;;;;23.72;65.59;96572.50;5088154;28;20493;-75
2023/08/03 04:06:18;;;;;;;11.13;8.57;;;;;;;23.85;64.64;96584.25;5069658;28;20191;-75
2023/08/03 04:09:39;;;;;;;13.23;9.70;;;;;;;23.72;65.48;96578.59;5086147;28;20309;-80
2023/08/03 04:13:00;;;;;;;12.17;9.63;;;;;;;23.76;65.48;96577.28;5066502;28;20201;-80
2023/08/03 04:16:21;;;;;;;11.97;10.00;;;;;;;23.78;65.41;96579.78;5085756;28;20190;-79
2023/08/03 04:19:42;;;;;;;14.20;9.83;;;;;;;23.91;64.85;96588.06;5085765;28;20604;-80
2023/08/03 04:23:03;;;;;;;10.93;9.60;;;;;;;23.92;64.82;96569.41;5052300;28;20231;-80
2023/08/03 04:26:24;;;;;;;13.07;9.27;;;;;;;24.22;63.71;96587.31;5087386;28;20233;-76
2023/08/03 04:29:49;;;;;;;11.40;10.13;;;;;;;24.28;62.60;96587.66;5069826;28;20668;-77
2023/08/03 04:33:15;;;;;;;11.17;9.57;;;;;;;24.86;61.22;96567.06;5070066;28;20217;-77
2023/08/03 04:36:40;;;;;;;14.73;9.83;;;;;;;25.29;59.59;96582.50;5068579;28;20344;-78
2023/08/03 04:40:01;;;;;;;11.77;9.90;;;;;;;25.31;59.98;96592.91;5086475;28;20698;-79
2023/08/03 04:43:22;;;;;;;10.00;8.40;;;;;;;25.37;60.08;96593.06;5068735;28;20212;-78
2023/08/03 04:46:45;;;;;;;11.30;9.80;;;;;;;25.59;59.25;96600.31;5069261;28;20185;-76
2023/08/03 04:50:07;;;;;;;10.47;9.37;;;;;;;26.08;58.48;96598.22;5068942;28;20196;-78
2023/08/03 04:53:29;;;;;;;14.20;9.90;;;;;;;25.73;59.57;96598.72;5068667;28;20310;-81
2023/08/03 04:56:10;;;;;;;13.33;9.63;;;;;;;25.84;59.57;96601.00;5068439;28;20196;-77
2023/08/03 04:58:38;;;;;;;11.83;9.53;;;;;;;26.17;58.51;96605.09;5069510;28;20660;-75
2023/08/03 05:01:05;;;;;;;12.40;11.20;;;;;;;26.19;58.88;96612.91;5052709;28;20602;-79
2023/08/03 05:03:32;;;;;;;9.97;8.97;;;;;;;26.55;57.67;96614.78;5069040;28;20669;-77
2023/08/03 05:05:59;;;;;;;10.20;8.30;;;;;;;26.53;57.28;96600.00;5087396;28;20192;-80
2023/08/03 05:08:30;;;;;;;9.23;8.33;;;;;;;26.51;57.66;96615.31;5087083;28;20242;-76
2023/08/03 05:10:57;;;;;;;10.00;8.63;;;;;;;26.63;57.20;96609.38;5069234;28;20180;-78
2023/08/03 05:13:24;;;;;;;11.47;9.20;;;;;;;26.98;56.54;96621.22;5086757;28;20294;-78
2023/08/03 05:15:52;;;;;;;11.03;8.37;;;;;;;27.23;55.69;96621.78;5087114;28;20201;-82
2023/08/03 05:18:19;;;;;;;10.07;8.90;;;;;;;27.35;54.76;96623.00;5086736;28;20176;-79
2023/08/03 05:20:46;;;;;;;12.53;8.50;;;;;;;27.52;54.54;96611.16;5086871;28;20215;-78
2023/08/03 05:23:13;;;;;;;11.53;8.87;;;;;;;27.83;53.72;96633.03;5052134;28;20197;-77
2023/08/03 05:25:40;;;;;;;10.63;8.77;;;;;;;28.07;53.16;96637.22;5068644;28;20196;-76
2023/08/03 05:28:07;;;;;;;12.60;8.97;;;;;;;27.79;53.49;96609.63;5068983;28;20180;-82
2023/08/03 05:30:35;;;;;;;11.13;8.60;;;;;;;27.94;53.29;96629.91;5086699;28;20185;-76
2023/08/03 05:33:02;;;;;;;10.47;8.90;;;;;;;27.76;53.37;96620.69;5086879;28;20220;-79
2023/08/03 05:35:30;;;;;;;12.43;9.17;;;;;;;27.80;53.18;96628.06;5068608;28;20690;-81
2023/08/03 05:37:57;;;;;;;13.50;10.20;;;;;;;28.10;52.83;96634.19;5086388;28;20192;-79
2023/08/03 05:40:24;;;;;;;16.40;11.00;;;;;;;27.81;52.66;96631.56;5086692;28;20619;-80
2023/08/03 05:42:51;;;;;;;12.70;9.37;;;;;;;27.92;52.96;96633.75;5051522;28;20216;-79
2023/08/03 05:45:48;;;;;;;10.93;9.33;;;;;;;27.87;52.46;96631.66;5086644;28;20188;-74
2023/08/03 05:48:20;;;;;;;10.60;8.47;;;;;;;28.26;52.27;96641.09;5052083;28;20197;-78
2023/08/03 05:50:49;;;;;;;10.53;8.17;;;;;;;28.58;51.07;96609.50;5086360;28;20554;-80
2023/08/03 05:53:17;;;;;;;11.87;8.40;;;;;;;28.75;51.25;96621.53;5086167;28;20589;-78
2023/08/03 05:55:45;;;;;;;11.67;8.83;;;;;;;29.03;50.54;96629.53;5086100;28;20177;-75
2023/08/03 05:58:35;;;;;;;12.17;9.17;;;;;;;28.95;51.10;96625.16;5086498;28;20215;-76
2023/08/03 06:01:03;;;;;;;11.40;8.13;;;;;;;28.94;49.48;96623.53;5068302;28;20211;-77
2023/08/03 06:03:34;;;;;;;13.33;9.50;;;;;;;29.05;49.73;96616.00;5068422;28;20568;-78
2023/08/03 06:06:04;;;;;;;10.60;8.93;;;;;;;29.30;49.06;96627.91;5067898;28;20573;-77
2023/08/03 06:08:32;;;;;;;13.23;9.57;;;;;;;29.25;49.32;96609.81;5086016;28;20272;-75
2023/08/03 06:11:04;;;;;;;10.40;9.33;;;;;;;29.19;49.03;96628.44;5068440;28;20706;-76
2023/08/03 06:13:35;;;;;;;10.63;9.27;;;;;;;29.55;49.06;96624.53;5086225;28;20243;-76
2023/08/03 06:16:08;;;;;;;13.13;8.97;;;;;;;29.88;48.67;96626.56;5086416;28;20280;-81
2023/08/03 06:18:50;;;;;;;10.63;9.43;;;;;;;30.03;46.64;96627.22;5081811;28;20203;-79
2023/08/03 06:21:17;;;;;;;10.70;9.43;;;;;;;30.17;46.97;96634.28;5067559;28;20576;-79
2023/08/03 06:23:50;;;;;;;11.27;9.30;;;;;;;30.44;45.92;96644.00;5068093;28;20185;-76
2023/08/03 06:26:20;;;;;;;14.50;9.90;;;;;;;30.12;46.01;96618.84;5085159;28;20672;-81
2023/08/03 06:28:56;;;;;;;12.97;9.23;;;;;;;30.19;45.84;96616.19;5083101;28;20193;-76
2023/08/03 06:31:30;;;;;;;11.33;8.70;;;;;;;30.37;46.45;96630.66;5051362;28;20189;-82
2023/08/03 06:33:58;;;;;;;13.17;9.63;;;;;;;30.24;46.33;96621.72;5050922;28;20277;-77
2023/08/03 06:36:27;;;;;;;14.17;8.97;;;;;;;30.36;45.72;96628.16;5067633;28;20184;-75
2023/08/03 06:38:55;;;;;;;12.07;10.13;;;;;;;30.20;46.18;96617.81;5067753;28;20193;-75
2023/08/03 06:41:24;;;;;;;9.63;8.63;;;;;;;29.90;46.05;96622.69;5085812;28;20193;-78
2023/08/03 06:43:54;;;;;;;12.00;9.83;;;;;;;30.27;46.50;96627.50;5067443;28;20230;-74
2023/08/03 06:46:21;;;;;;;13.73;9.97;;;;;;;30.53;45.24;96619.56;5085488;28;20195;-75
2023/08/03 06:48:50;;;;;;;15.07;10.23;;;;;;;30.56;45.55;96620.19;5085546;28;20193;-74
2023/08/03 06:51:18;;;;;;;16.93;9.80;;;;;;;30.89;44.91;96608.47;5067012;28;20202;-77
2023/08/03 06:53:47;;;;;;;14.43;9.67;;;;;;;30.96;44.43;96628.03;5067712;28;20228;-75
2023/08/03 06:56:14;;;;;;;18.33;11.80;;;;;;;31.01;44.07;96612.19;5051275;28;20730;-74
2023/08/03 06:58:41;;;;;;;15.47;10.37;;;;;;;31.29;43.58;96626.13;5074664;28;20189;-75
2023/08/03 07:01:08;;;;;;;18.00;10.53;;;;;;;31.39;43.33;96631.06;5078069;28;20188;-75
2023/08/03 07:03:35;;;;;;;18.25;10.50;;;;;;;31.60;42.70;96621.94;5092019;28;20228;-81
2023/08/03 07:06:04;;;;;;;12.83;9.13;;;;;;;31.36;43.09;96623.44;5090366;28;20215;-74
2023/08/03 07:08:32;;;;;;;9.13;8.23;;;;;;;31.58;41.71;96624.84;5054604;28;20287;-77
2023/08/03 07:10:59;;;;;;;8.88;7.40;;;;;;;31.67;40.33;96615.56;5071117;28;20192;-77
2023/08/03 07:13:26;;;;;;;10.87;8.40;;;;;;;31.78;40.99;96625.59;5089200;28;20640;-78
2023/08/03 07:15:53;;;;;;;19.23;10.43;;;;;;;31.85;41.82;96620.22;5089167;28;20210;-79
2023/08/03 07:18:21;;;;;;;13.50;9.85;;;;;;;32.01;41.62;96617.91;5055417;28;20254;-76
2023/08/03 07:21:29;;;;;;;20.42;11.93;;;;;;;31.97;40.78;96624.72;5076696;28;20192;-78
2023/08/03 07:24:09;;;;;;;13.98;9.95;;;;;;;31.64;40.89;96618.66;5080835;28;20228;-76
2023/08/03 07:26:37;;;;;;;12.07;8.43;;;;;;;31.85;40.04;96618.38;5091944;28;20212;-76
2023/08/03 07:29:45;;;;;;;9.07;7.33;;;;;;;31.70;40.09;96633.88;5069772;28;20192;-78
2023/08/03 07:33:06;;;;;;;9.52;7.55;;;;;;;31.76;41.40;96637.53;5049865;28;20185;-79
2023/08/03 07:36:27;;;;;;;10.30;6.88;;;;;;;31.85;40.23;96631.75;5067876;28;20193;-75
2023/08/03 07:39:48;;;;;;;13.23;8.52;;;;;;;32.05;39.99;96637.88;5035557;28;20193;-78
2023/08/03 07:43:10;;;;;;;8.48;7.25;;;;;;;32.03;40.01;96641.78;5050287;28;20232;-79
2023/08/03 07:46:31;;;;;;;7.90;7.10;;;;;;;31.90;40.74;96623.88;5050435;28;20193;-81
2023/08/03 07:49:52;;;;;;;8.15;7.30;;;;;;;31.69;41.59;96637.59;5069655;28;20193;-79
2023/08/03 07:52:33;;;;;;;8.32;6.80;;;;;;;31.51;41.71;96624.03;5071074;28;20201;-74
2023/08/03 07:55:41;;;;;;;7.18;6.47;;;;;;;31.52;41.88;96635.56;5077541;28;20240;-77
2023/08/03 07:59:03;;;;;;;7.50;6.63;;;;;;;31.79;41.68;96632.59;5069413;28;20219;-77
2023/08/03 08:02:24;;;;;;;13.57;7.70;;;;;;;32.14;41.13;96630.41;5052798;28;20262;-79
2023/08/03 08:05:45;;;;;;;11.40;9.30;;;;;;;31.98;40.38;96629.03;5051454;28;20668;-79
2023/08/03 08:09:06;;;;;;;17.20;10.50;;;;;;;31.55;41.94;96625.25;5067221;28;20632;-84
2023/08/03 08:12:27;;;;;;;8.88;7.25;;;;;;;31.54;42.07;96620.13;5067235;28;20288;-78
2023/08/03 08:15:47;;;;;;;9.23;6.97;;;;;;;31.57;42.24;96617.88;5066722;28;20223;-76
2023/08/03 08:19:08;;;;;;;10.07;7.03;;;;;;;31.78;41.51;96619.44;5066744;28;20189;-79
2023/08/03 08:22:29;;;;;;;9.03;7.83;;;;;;;32.12;41.53;96626.28;5067265;28;20205;-78
2023/08/03 08:25:52;;;;;;;96.85;53.42;;;;;;;32.08;40.79;96621.38;5050939;28;20186;-74
2023/08/03 08:29:13;;;;;;;10.38;8.35;;;;;;;32.40;40.36;96624.88;5069569;28;20188;-80
2023/08/03 08:32:34;;;;;;;9.25;8.25;;;;;;;32.29;41.41;96624.75;5086205;28;20185;-77
2023/08/03 08:35:54;;;;;;;11.77;8.05;;;;;;;32.67;39.83;96614.81;5067798;28;20228;-81
2023/08/03 08:39:15;;;;;;;10.73;8.85;;;;;;;32.75;40.27;96617.22;5067442;28;20212;-82
2023/08/03 08:42:36;;;;;;;13.20;9.32;;;;;;;32.93;39.47;96617.31;5069741;28;20659;-75
2023/08/03 08:45:57;;;;;;;11.63;7.50;;;;;;;32.86;39.37;96613.84;5075368;28;20189;-76
2023/08/03 08:49:18;;;;;;;11.25;8.68;;;;;;;32.37;40.14;96584.28;5082169;28;20196;-76
2023/08/03 08:52:39;;;;;;;11.05;8.68;;;;;;;32.71;39.47;96610.66;5054851;28;20208;-77
2023/08/03 08:56:00;;;;;;;14.10;9.02;;;;;;;32.89;39.33;96603.50;5086035;28;20570;-75
2023/08/03 08:59:21;;;;;;;12.40;8.65;;;;;;;32.62;40.04;96615.47;5034300;28;20196;-76
2023/08/03 09:02:45;;;;;;;8.75;7.95;;;;;;;32.72;39.35;96612.31;5034417;28;20345;-79
2023/08/03 09:06:06;;;;;;;8.85;7.95;;;;;;;32.92;39.24;96618.34;5065964;28;20200;-77
2023/08/03 09:09:28;;;;;;;8.80;7.90;;;;;;;32.88;39.16;96609.09;5065783;28;20320;-77
2023/08/03 09:12:48;;;;;;;16.30;12.18;;;;;;;33.18;38.77;96602.00;5050704;28;20223;-77
2023/08/03 09:16:15;;;;;;;11.35;8.70;;;;;;;33.32;38.85;96600.84;5066189;28;20675;-78
2023/08/03 09:19:36;;;;;;;11.57;9.30;;;;;;;33.23;38.66;96602.19;5030966;28;20209;-76
2023/08/03 09:22:57;;;;;;;11.95;8.85;;;;;;;33.34;38.82;96614.88;5065105;28;20207;-79
2023/08/03 09:26:17;;;;;;;12.30;9.25;;;;;;;33.31;38.50;96612.63;5065844;28;20664;-81
2023/08/03 09:29:38;;;;;;;9.32;8.32;;;;;;;32.89;39.37;96600.81;5066405;28;20734;-78
2023/08/03 09:32:59;;;;;;;13.35;9.45;;;;;;;32.44;40.20;96598.47;5066062;28;20178;-84
2023/08/03 09:36:25;;;;;;;10.25;8.40;;;;;;;32.35;40.08;96581.00;5052530;28;20189;-74
2023/08/03 09:39:49;;;;;;;10.52;7.55;;;;;;;32.76;39.97;96603.63;5069299;28;20222;-76
2023/08/03 09:43:10;;;;;;;8.32;7.45;;;;;;;33.00;39.03;96583.19;5033573;28;20709;-76
2023/08/03 09:46:31;;;;;;;9.43;7.95;;;;;;;33.27;39.03;96592.63;5048621;28;20185;-77
2023/08/03 09:49:52;;;;;;;10.55;7.63;;;;;;;33.41;38.38;96583.38;5047329;28;20255;-76
2023/08/03 09:53:13;;;;;;;8.70;7.90;;;;;;;33.43;38.80;96588.53;5049949;28;20215;-75
2023/08/03 09:56:35;;;;;;;10.23;8.88;;;;;;;33.23;38.75;96586.06;5065493;28;20189;-78
2023/08/03 09:59:58;;;;;;;8.40;7.53;;;;;;;32.85;39.77;96577.34;5048063;28;20212;-77
2023/08/03 10:03:25;;;;;;;9.93;8.32;;;;;;;32.95;39.52;96572.28;5065696;28;20303;-81
2023/08/03 10:06:25;;;;;;;9.70;8.70;;;;;;;33.05;39.88;96577.16;5066248;28;20197;-79
2023/08/03 10:09:46;;;;;;;9.90;8.60;;;;;;;33.16;39.39;96571.09;5064059;28;20232;-77
2023/08/03 10:13:15;;;;;;;9.85;8.85;;;;;;;33.25;39.87;96573.25;5065519;28;20201;-78
2023/08/03 10:16:36;;;;;;;9.68;8.52;;;;;;;33.06;39.39;96571.56;5065825;28;20272;-81
2023/08/03 10:19:59;;;;;;;9.45;8.48;;;;;;;32.90;40.11;96556.03;5065493;28;20266;-76
2023/08/03 10:23:10;;;;;;;9.20;8.20;;;;;;;33.35;39.11;96568.16;5066655;28;20645;-82
2023/08/03 10:25:58;;;;;;;9.93;8.93;;;;;;;33.60;38.37;96560.88;5052576;28;20200;-77
2023/08/03 10:28:38;;;;;;;10.02;8.75;;;;;;;33.59;38.37;96553.84;5067403;28;20663;-84
2023/08/03 10:31:18;;;;;;;9.88;7.75;;;;;;;33.96;38.22;96551.13;5100169;28;20200;-77
2023/08/03 10:33:49;;;;;;;9.02;8.00;;;;;;;33.96;38.69;96561.88;5091301;28;20228;-81
2023/08/03 10:36:33;;;;;;;8.60;7.53;;;;;;;33.42;38.77;96554.69;5092364;28;20279;-77
2023/08/03 10:39:11;;;;;;;9.57;8.50;;;;;;;33.50;38.79;96541.81;5090803;28;20188;-83
2023/08/03 10:41:40;;;;;;;9.90;8.90;;;;;;;33.46;38.89;96545.13;5091821;28;20274;-82
2023/08/03 10:44:08;;;;;;;10.15;8.50;;;;;;;33.85;38.09;96547.34;5072709;28;20668;-83
2023/08/03 10:46:37;;;;;;;9.00;7.80;;;;;;;34.09;37.29;96532.13;5105833;28;20262;-79
2023/08/03 10:49:20;;;;;;;11.93;8.65;;;;;;;34.25;37.98;96542.25;5102167;28;20283;-79
2023/08/03 10:51:47;;;;;;;8.30;7.50;;;;;;;34.39;37.48;96549.06;5077233;28;20659;-80
2023/08/03 10:54:16;;;;;;;8.63;7.78;;;;;;;33.91;37.16;96495.38;5092097;28;20224;-80
2023/08/03 10:57:23;;;;;;;9.23;8.27;;;;;;;34.31;36.97;96533.25;5090179;28;20631;-83
2023/08/03 10:59:59;;;;;;;10.40;7.82;;;;;;;34.69;36.28;96532.84;5040613;28;20188;-84
2023/08/03 11:02:31;;;;;;;11.88;8.25;;;;;;;33.99;37.00;96523.78;5055104;28;20188;-77
2023/08/03 11:05:04;;;;;;;10.85;8.45;;;;;;;33.67;38.33;96509.75;5071528;28;20196;-80
2023/08/03 11:07:38;;;;;;;11.35;7.85;;;;;;;33.86;37.41;96524.78;5089592;28;20296;-79
2023/08/03 11:10:09;;;;;;;13.02;9.07;;;;;;;33.88;36.99;96521.88;5071730;28;20311;-84
2023/08/03 11:12:38;;;;;;;10.90;8.80;;;;;;;34.30;37.38;96507.41;5089949;28;20279;-78
2023/08/03 11:15:07;;;;;;;13.38;9.63;;;;;;;34.68;36.64;96513.22;5071636;28;20638;-75
2023/08/03 11:17:36;;;;;;;9.80;7.93;;;;;;;34.20;36.92;96493.72;5090119;28;20201;-79
2023/08/03 11:20:07;;;;;;;9.35;8.18;;;;;;;34.41;35.74;96515.50;5079719;28;20264;-77
2023/08/03 11:22:35;;;;;;;8.35;7.50;;;;;;;34.17;36.66;96502.25;5092434;28;20280;-75
2023/08/03 11:25:05;;;;;;;9.68;8.27;;;;;;;34.54;36.22;96509.09;5091034;28;20185;-77
2023/08/03 11:27:33;;;;;;;9.02;7.47;;;;;;;34.70;35.12;96504.91;5051310;28;20197;-81
2023/08/03 11:30:03;;;;;;;8.80;7.97;;;;;;;35.01;35.18;96502.72;5034214;28;20290;-76
2023/08/03 11:32:39;;;;;;;10.23;8.40;;;;;;;35.33;34.24;96500.41;5050843;28;20196;-82
2023/08/03 11:35:10;;;;;;;8.43;7.63;;;;;;;35.54;34.20;96505.19;5051409;28;20629;-75
2023/08/03 11:37:38;;;;;;;11.13;7.93;;;;;;;35.51;33.72;96502.97;5051484;28;20871;-77
2023/08/03 11:40:08;;;;;;;10.30;8.95;;;;;;;35.03;34.70;96499.78;5035867;28;20205;-82
2023/08/03 11:42:39;;;;;;;10.48;8.48;;;;;;;35.04;34.44;96496.84;5051744;28;20193;-81
2023/08/03 11:45:07;;;;;;;11.02;9.02;;;;;;;35.11;34.87;96481.38;5034072;28;20623;-78
2023/08/03 11:47:46;;;;;;;12.38;9.15;;;;;;;35.27;34.64;96489.75;5034280;28;20292;-80
2023/08/03 11:50:19;;;;;;;10.98;8.43;;;;;;;35.22;34.76;96458.97;5051573;28;20287;-78
2023/08/03 11:52:47;;;;;;;8.52;7.72;;;;;;;35.70;33.72;96500.91;5051059;28;20247;-77
2023/08/03 11:55:38;;;;;;;10.35;8.40;;;;;;;35.21;34.98;96505.00;5070230;28;20221;-83
2023/08/03 11:58:08;;;;;;;12.15;9.15;;;;;;;34.76;34.39;96483.28;5050627;28;20609;-78
2023/08/03 12:00:38;;;;;;;11.52;8.48;;;;;;;34.71;35.20;96506.53;5069265;28;20205;-79
2023/08/03 12:03:05;;;;;;;11.73;8.20;;;;;;;34.70;34.28;96486.91;5069659;28;20200;-78
2023/08/03 12:05:45;;;;;;;9.13;8.10;;;;;;;34.21;35.28;96492.69;5050583;28;20197;-80
2023/08/03 12:08:19;;;;;;;8.98;8.07;;;;;;;34.34;35.55;96495.13;5068587;28;20260;-74
2023/08/03 12:11:06;;;;;;;8.25;7.28;;;;;;;34.71;34.95;96487.69;5050784;28;20185;-80
2023/08/03 12:13:33;;;;;;;9.13;7.72;;;;;;;34.87;34.75;96487.81;5073055;28;20236;-78
2023/08/03 12:16:05;;;;;;;8.73;7.72;;;;;;;35.13;34.38;96483.84;5057399;28;20186;-74
2023/08/03 12:18:32;;;;;;;9.02;8.02;;;;;;;35.13;33.63;96473.06;5068913;28;20185;-79
2023/08/03 12:21:00;;;;;;;13.50;11.48;;;;;;;35.40;34.03;96468.78;5050377;28;20193;-77
2023/08/03 12:23:30;;;;;;;10.30;8.40;;;;;;;35.41;33.33;96474.97;5068190;28;20196;-72
2023/08/03 12:25:57;;;;;;;10.20;8.10;;;;;;;35.50;33.62;96478.97;5067865;28;20268;-74
2023/08/03 12:28:25;;;;;;;8.82;7.88;;;;;;;35.84;32.38;96486.06;5067677;28;20681;-75
2023/08/03 12:30:54;;;;;;;8.38;7.50;;;;;;;35.83;32.64;96474.50;5049749;28;20189;-75
2023/08/03 12:33:21;;;;;;;11.07;8.20;;;;;;;35.60;31.89;96476.47;5067426;28;20189;-74
2023/08/03 12:35:49;;;;;;;8.73;7.78;;;;;;;35.46;32.21;96469.69;5067620;28;20221;-75
2023/08/03 12:38:16;;;;;;;11.50;8.10;;;;;;;35.52;33.39;96474.16;5067471;28;20284;-74
2023/08/03 12:40:43;;;;;;;10.75;8.52;;;;;;;35.86;31.90;96473.19;5067802;28;20543;-74
2023/08/03 12:43:10;;;;;;;9.00;7.93;;;;;;;35.44;31.53;96452.94;5049796;28;20196;-74
2023/08/03 12:45:37;;;;;;;10.57;8.70;;;;;;;35.55;31.75;96444.03;5049528;28;20185;-73
2023/08/03 12:48:04;;;;;;;11.35;8.48;;;;;;;35.60;32.64;96450.34;5067654;28;20721;-74
2023/08/03 12:50:44;;;;;;;9.10;8.23;;;;;;;35.79;32.44;96461.72;5067471;28;20189;-77
2023/08/03 12:53:52;;;;;;;7.82;7.07;;;;;;;35.91;32.19;96465.19;5067426;28;20200;-77
2023/08/03 12:57:13;;;;;;;8.80;8.00;;;;;;;35.89;31.98;96453.81;5065690;28;20196;-80
2023/08/03 13:00:33;;;;;;;9.93;8.00;;;;;;;35.44;32.18;96471.81;5067215;28;20680;-80
2023/08/03 13:03:54;;;;;;;11.38;8.40;;;;;;;35.29;32.43;96469.63;5050998;28;20188;-74
2023/08/03 13:07:15;;;;;;;9.25;8.35;;;;;;;35.36;31.86;96461.41;5069674;28;20193;-74
2023/08/03 13:10:36;;;;;;;12.35;8.75;;;;;;;35.39;31.77;96459.06;5069063;28;20221;-74
2023/08/03 13:13:57;;;;;;;9.07;7.63;;;;;;;35.22;31.72;96447.41;5066884;28;20665;-77
2023/08/03 13:17:18;;;;;;;9.38;8.15;;;;;;;35.28;32.01;96448.31;5065710;28;20193;-74
2023/08/03 13:20:38;;;;;;;8.10;7.25;;;;;;;35.40;32.11;96455.31;5066190;28;20196;-73
2023/08/03 13:23:59;;;;;;;9.02;7.97;;;;;;;35.33;32.04;96478.88;5065793;28;20481;-75
2023/08/03 13:27:35;;;;;;;10.27;8.02;;;;;;;35.14;33.09;96461.22;5046945;28;20197;-73
2023/08/03 13:30:57;;;;;;;10.10;9.15;;;;;;;34.91;33.37;96462.06;5016777;28;20470;-73
2023/08/03 13:34:20;;;;;;;9.13;8.00;;;;;;;34.95;33.46;96460.53;5030608;28;20282;-74
2023/08/03 13:37:40;;;;;;;8.60;7.80;;;;;;;35.26;33.10;96450.44;5065753;28;20350;-82
2023/08/03 13:40:21;;;;;;;9.23;8.00;;;;;;;35.43;31.94;96445.94;5065535;28;20196;-76
2023/08/03 13:42:48;;;;;;;8.75;7.75;;;;;;;35.54;31.58;96435.13;5066541;28;20197;-76
2023/08/03 13:45:16;;;;;;;8.88;7.90;;;;;;;35.76;32.02;96454.94;5051157;28;20213;-77
2023/08/03 13:47:43;;;;;;;8.35;7.55;;;;;;;35.76;31.64;96454.13;5084079;28;20668;-82
2023/08/03 13:50:11;;;;;;;8.80;7.80;;;;;;;35.37;31.98;96457.66;5068780;28;20208;-81
2023/08/03 13:52:38;;;;;;;8.55;7.65;;;;;;;35.17;31.57;96431.97;5068664;28;20605;-74